createdAt,value
2023-02-17T00:00:27.324Z,100537.34
2023-02-17T00:02:57.917Z,100546.94
2023-02-17T00:05:27.418Z,100535.06
2023-02-17T00:07:56.449Z,100537.25
2023-02-17T00:10:25.489Z,100533.41
2023-02-17T00:12:54.368Z,100543.09
2023-02-17T00:15:24.855Z,100525.03
2023-02-17T00:17:53.772Z,100532.78
2023-02-17T00:20:22.770Z,100530.03
2023-02-17T00:22:51.331Z,100525.59
2023-02-17T00:25:20.282Z,100528.13
2023-02-17T00:27:49.108Z,100519.63
2023-02-17T00:30:18.502Z,100522.16
2023-02-17T00:32:48.884Z,100528.25
2023-02-17T00:35:17.551Z,100520.22
2023-02-17T00:37:46.042Z,100516.38
2023-02-17T00:40:15.712Z,100507.88
2023-02-17T00:42:44.547Z,100512.69
2023-02-17T00:45:13.483Z,100509.81
2023-02-17T00:47:42.502Z,100502.63
2023-02-17T00:50:13.373Z,100501.88
2023-02-17T00:52:42.169Z,100506.53
2023-02-17T00:55:11.113Z,100504.16
2023-02-17T00:57:40.099Z,100494.91
2023-02-17T01:00:10.524Z,100501.09
2023-02-17T01:02:39.669Z,100497.06
2023-02-17T01:05:09.294Z,100489.91
2023-02-17T01:07:39.196Z,100493.09
2023-02-17T01:10:09.455Z,100491.59
2023-02-17T01:12:39.838Z,100487.69
2023-02-17T01:15:09.482Z,100485.84
2023-02-17T01:17:38.402Z,100484.69
2023-02-17T01:20:08.830Z,100480.84
2023-02-17T01:22:41.022Z,100480.63
2023-02-17T01:25:10.252Z,100476.06
2023-02-17T01:27:39.385Z,100466.66
2023-02-17T01:30:09.278Z,100464.03
2023-02-17T01:32:38.729Z,100454.38
2023-02-17T01:35:08.341Z,100454.22
2023-02-17T01:37:37.307Z,100452.44
2023-02-17T01:40:09.038Z,100457.72
2023-02-17T01:42:37.909Z,100449.97
2023-02-17T01:45:33.504Z,100451.03
2023-02-17T01:48:04.760Z,100450.78
2023-02-17T01:50:36.285Z,100457.19
2023-02-17T01:53:06.101Z,100457.31
2023-02-17T01:55:36.930Z,100449.16
2023-02-17T01:58:09.478Z,100447.34
2023-02-17T02:00:38.445Z,100450.09
2023-02-17T02:03:10.868Z,100441.88
2023-02-17T02:05:40.296Z,100445.59
2023-02-17T02:08:09.472Z,100446.44
2023-02-17T02:10:39.514Z,100441.94
2023-02-17T02:13:08.977Z,100439.88
2023-02-17T02:15:42.154Z,100436.41
2023-02-17T02:18:19.568Z,100436.97
2023-02-17T02:21:09.733Z,100433.13
2023-02-17T02:24:01.343Z,100426.94
2023-02-17T02:26:58.123Z,100424.47
2023-02-17T02:29:52.605Z,100428.94
2023-02-17T02:32:52.898Z,100430.22
2023-02-17T02:35:26.641Z,100427.44
2023-02-17T02:38:01.170Z,100426.59
2023-02-17T02:40:32.900Z,100421.41
2023-02-17T02:43:04.033Z,100425.84
2023-02-17T02:45:35.038Z,100424.63
2023-02-17T02:48:05.779Z,100417.75
2023-02-17T02:50:53.705Z,100423.31
2023-02-17T02:53:45.907Z,100410.09
2023-02-17T02:56:24.448Z,100412.13
2023-02-17T02:59:01.607Z,100403.47
2023-02-17T03:01:38.708Z,100408.69
2023-02-17T03:04:14.301Z,100408.41
2023-02-17T03:06:47.650Z,100406.41
2023-02-17T03:09:21.046Z,100410.53
2023-02-17T03:11:50.763Z,100404.38
2023-02-17T03:14:22.673Z,100408.09
2023-02-17T03:16:52.444Z,100417.28
2023-02-17T03:19:25.342Z,100413.56
2023-02-17T03:21:57.467Z,100416.25
2023-02-17T03:24:26.761Z,100411.75
2023-02-17T03:26:56.510Z,100418.59
2023-02-17T03:29:25.398Z,100415.47
2023-02-17T03:31:53.910Z,100418.16
2023-02-17T03:34:24.494Z,100407.44
2023-02-17T03:36:53.263Z,100411.06
2023-02-17T03:39:22.088Z,100414.44
2023-02-17T03:41:51.814Z,100408.59
2023-02-17T03:44:20.694Z,100424.44
2023-02-17T03:46:49.150Z,100422.56
2023-02-17T03:49:18.471Z,100423.47
2023-02-17T03:51:48.973Z,100426.75
2023-02-17T03:54:18.184Z,100422.75
2023-02-17T03:56:47.089Z,100415.25
2023-02-17T03:59:16.047Z,100404.84
2023-02-17T04:01:44.639Z,100410.31
2023-02-17T04:04:13.623Z,100410.94
2023-02-17T04:06:42.667Z,100400.44
2023-02-17T04:09:13.035Z,100400.75
2023-02-17T04:11:42.018Z,100392.31
2023-02-17T04:14:10.942Z,100395.97
2023-02-17T04:16:40.267Z,100392.50
2023-02-17T04:19:09.277Z,100395.31
2023-02-17T04:21:38.203Z,100401.25
2023-02-17T04:24:07.646Z,100401.94
2023-02-17T04:26:38.089Z,100401.91
2023-02-17T04:29:06.779Z,100402.81
2023-02-17T04:31:35.618Z,100401.81
2023-02-17T04:34:04.835Z,100398.88
2023-02-17T04:36:33.921Z,100395.81
2023-02-17T04:39:02.966Z,100387.97
2023-02-17T04:41:31.906Z,100374.38
2023-02-17T04:44:02.417Z,100359.41
2023-02-17T04:46:31.041Z,100368.25
2023-02-17T04:49:00.120Z,100379.44
2023-02-17T04:51:29.121Z,100386.03
2023-02-17T04:53:58.185Z,100382.41
2023-02-17T04:56:27.090Z,100376.72
2023-02-17T04:58:55.596Z,100373.44
2023-02-17T05:01:26.020Z,100349.16
2023-02-17T05:03:54.587Z,100342.22
2023-02-17T05:06:23.656Z,100361.44
2023-02-17T05:08:54.168Z,100360.34
2023-02-17T05:11:23.443Z,100351.22
2023-02-17T05:13:52.098Z,100349.97
2023-02-17T05:16:21.268Z,100337.34
2023-02-17T05:18:51.810Z,100352.84
2023-02-17T05:21:20.796Z,100358.06
2023-02-17T05:23:49.689Z,100349.09
2023-02-17T05:26:18.790Z,100340.72
2023-02-17T05:28:47.664Z,100342.00
2023-02-17T05:31:19.425Z,100336.13
2023-02-17T05:33:48.583Z,100331.38
2023-02-17T05:36:19.185Z,100325.78
2023-02-17T05:38:50.012Z,100332.97
2023-02-17T05:41:19.677Z,100332.44
2023-02-17T05:43:49.006Z,100331.06
2023-02-17T05:46:18.140Z,100335.78
2023-02-17T05:48:50.214Z,100333.44
2023-02-17T05:51:20.937Z,100323.47
2023-02-17T05:53:50.299Z,100332.09
2023-02-17T05:56:19.311Z,100331.06
2023-02-17T05:58:48.107Z,100317.66
2023-02-17T06:01:17.068Z,100325.06
2023-02-17T06:03:46.092Z,100329.44
2023-02-17T06:06:18.821Z,100320.38
2023-02-17T06:08:49.253Z,100326.97
2023-02-17T06:11:18.145Z,100323.84
2023-02-17T06:13:46.950Z,100322.59
2023-02-17T06:16:15.922Z,100319.75
2023-02-17T06:18:45.570Z,100321.81
2023-02-17T06:21:14.749Z,100325.66
2023-02-17T06:23:43.762Z,100325.53
2023-02-17T06:26:14.734Z,100324.59
2023-02-17T06:28:43.423Z,100333.97
2023-02-17T06:31:12.532Z,100334.81
2023-02-17T06:33:41.453Z,100321.00
2023-02-17T06:36:10.648Z,100317.19
2023-02-17T06:38:39.613Z,100318.88
2023-02-17T06:41:08.496Z,100315.13
2023-02-17T06:43:38.409Z,100311.66
2023-02-17T06:46:09.060Z,100312.81
2023-02-17T06:48:38.437Z,100313.25
2023-02-17T06:51:07.592Z,100312.66
2023-02-17T06:53:36.857Z,100300.09
2023-02-17T06:56:06.670Z,100303.88
2023-02-17T06:58:36.722Z,100303.22
2023-02-17T07:01:08.940Z,100304.53
2023-02-17T07:03:38.352Z,100300.53
2023-02-17T07:06:08.196Z,100300.19
2023-02-17T07:08:37.697Z,100299.72
2023-02-17T07:11:07.519Z,100295.50
2023-02-17T07:13:36.321Z,100304.66
2023-02-17T07:16:09.471Z,100293.13
2023-02-17T07:18:39.020Z,100296.25
2023-02-17T07:21:09.012Z,100282.25
2023-02-17T07:23:40.567Z,100285.41
2023-02-17T07:26:10.985Z,100295.91
2023-02-17T07:28:41.080Z,100290.44
2023-02-17T07:31:13.010Z,100288.63
2023-02-17T07:33:42.662Z,100296.44
2023-02-17T07:36:13.446Z,100288.16
2023-02-17T07:38:43.402Z,100287.09
2023-02-17T07:41:14.842Z,100283.19
2023-02-17T07:43:43.975Z,100281.47
2023-02-17T07:46:14.840Z,100282.47
2023-02-17T07:48:43.919Z,100277.94
2023-02-17T07:51:14.230Z,100287.09
2023-02-17T07:53:43.024Z,100282.06
2023-02-17T07:56:13.556Z,100280.56
2023-02-17T07:58:43.238Z,100279.31
2023-02-17T08:01:14.860Z,100282.88
2023-02-17T08:03:44.222Z,100281.94
2023-02-17T08:06:13.808Z,100274.50
2023-02-17T08:09:00.969Z,100273.84
2023-02-17T08:11:50.002Z,100274.16
2023-02-17T08:14:19.439Z,100266.16
2023-02-17T08:16:49.696Z,100263.41
2023-02-17T08:19:18.908Z,100266.44
2023-02-17T08:21:48.321Z,100269.38
2023-02-17T08:24:17.473Z,100273.25
2023-02-17T08:26:47.207Z,100263.72
2023-02-17T08:29:16.296Z,100267.03
2023-02-17T08:31:45.172Z,100269.53
2023-02-17T08:34:15.980Z,100259.88
2023-02-17T08:36:44.959Z,100259.97
2023-02-17T08:39:16.197Z,100250.53
2023-02-17T08:41:46.632Z,100259.91
2023-02-17T08:44:15.851Z,100258.78
2023-02-17T08:46:45.555Z,100253.41
2023-02-17T08:49:16.498Z,100255.25
2023-02-17T08:51:45.858Z,100252.31
2023-02-17T08:54:15.250Z,100249.25
2023-02-17T08:56:44.887Z,100255.25
2023-02-17T08:59:14.334Z,100247.69
2023-02-17T09:01:43.517Z,100246.28
2023-02-17T09:04:16.829Z,100243.53
2023-02-17T09:06:48.523Z,100241.78
2023-02-17T09:09:19.070Z,100248.47
2023-02-17T09:11:48.176Z,100248.03
2023-02-17T09:14:17.212Z,100244.06
2023-02-17T09:16:45.834Z,100245.63
2023-02-17T09:19:17.270Z,100249.78
2023-02-17T09:21:46.376Z,100244.53
2023-02-17T09:24:15.501Z,100237.88
2023-02-17T09:26:44.727Z,100237.69
2023-02-17T09:29:13.612Z,100237.69
2023-02-17T09:31:42.294Z,100234.56
2023-02-17T09:34:11.349Z,100229.97
2023-02-17T09:36:43.275Z,100222.94
2023-02-17T09:39:14.190Z,100227.06
2023-02-17T09:41:45.086Z,100222.66
2023-02-17T09:44:21.472Z,100219.28
2023-02-17T09:47:01.766Z,100204.13
2023-02-17T09:49:36.508Z,100206.34
2023-02-17T09:52:11.949Z,100199.50
2023-02-17T09:54:46.120Z,100193.69
2023-02-17T09:57:20.737Z,100192.91
2023-02-17T09:59:53.749Z,100187.53
2023-02-17T10:02:31.062Z,100189.00
2023-02-17T10:05:02.795Z,100186.88
2023-02-17T10:07:36.846Z,100186.81
2023-02-17T10:10:09.993Z,100176.91
2023-02-17T10:12:41.748Z,100182.03
2023-02-17T10:15:17.840Z,100186.69
2023-02-17T10:17:53.039Z,100190.28
2023-02-17T10:20:25.576Z,100194.19
2023-02-17T10:22:58.597Z,100186.25
2023-02-17T10:25:42.571Z,100184.81
2023-02-17T10:28:16.618Z,100183.75
2023-02-17T10:30:51.192Z,100180.28
2023-02-17T10:33:25.365Z,100176.66
2023-02-17T10:35:55.555Z,100167.13
2023-02-17T10:38:38.484Z,100165.00
2023-02-17T10:41:11.613Z,100158.03
2023-02-17T10:43:40.850Z,100156.78
2023-02-17T10:46:10.081Z,100148.19
2023-02-17T10:48:42.333Z,100135.50
2023-02-17T10:51:16.242Z,100133.75
2023-02-17T10:53:49.889Z,100125.84
2023-02-17T10:56:21.366Z,100128.63
2023-02-17T10:58:53.473Z,100125.44
2023-02-17T11:01:23.399Z,100119.16
2023-02-17T11:04:01.633Z,100120.78
2023-02-17T11:06:31.512Z,100115.88
2023-02-17T11:09:05.748Z,100102.38
2023-02-17T11:11:38.006Z,100099.72
2023-02-17T11:14:14.184Z,100091.72
2023-02-17T11:16:44.826Z,100081.13
2023-02-17T11:19:23.418Z,100070.34
2023-02-17T11:21:53.450Z,100074.38
2023-02-17T11:24:24.530Z,100064.03
2023-02-17T11:26:58.450Z,100055.59
2023-02-17T11:29:28.060Z,100054.16
2023-02-17T11:31:58.675Z,100052.50
2023-02-17T11:34:30.278Z,100043.66
2023-02-17T11:37:01.655Z,100037.50
2023-02-17T11:39:32.202Z,100021.44
2023-02-17T11:42:01.180Z,100020.53
2023-02-17T11:44:30.252Z,100019.25
2023-02-17T11:47:06.099Z,100010.72
2023-02-17T11:49:58.872Z,100023.09
2023-02-17T11:52:36.425Z,100009.78
2023-02-17T11:55:19.979Z,100007.91
2023-02-17T11:57:58.985Z,99997.44
2023-02-17T12:00:32.579Z,100002.53
2023-02-17T12:03:22.841Z,99988.19
2023-02-17T12:05:57.636Z,99978.41
2023-02-17T12:08:38.498Z,99969.91
2023-02-17T12:11:17.922Z,99963.19
2023-02-17T12:13:56.106Z,99951.31
2023-02-17T12:16:43.348Z,99947.22
2023-02-17T12:19:26.244Z,99943.22
2023-02-17T12:22:03.183Z,99931.06
2023-02-17T12:24:42.469Z,99918.19
2023-02-17T12:27:26.497Z,99905.63
2023-02-17T12:30:05.580Z,99899.28
2023-02-17T12:32:46.993Z,99888.69
2023-02-17T12:35:18.836Z,99889.19
2023-02-17T12:37:51.179Z,99872.97
2023-02-17T12:40:30.666Z,99874.78
2023-02-17T12:43:03.378Z,99865.63
2023-02-17T12:45:39.928Z,99870.94
2023-02-17T12:48:17.122Z,99887.34
2023-02-17T12:50:53.251Z,99877.59
2023-02-17T12:53:26.947Z,99868.47
2023-02-17T12:55:58.593Z,99866.88
2023-02-17T12:58:30.029Z,99865.41
2023-02-17T13:01:06.878Z,99857.84
2023-02-17T13:03:37.906Z,99851.84
2023-02-17T13:06:12.937Z,99845.47
2023-02-17T13:08:45.653Z,99845.38
2023-02-17T13:11:26.298Z,99838.41
2023-02-17T13:13:56.346Z,99839.44
2023-02-17T13:16:25.367Z,99836.25
2023-02-17T13:18:54.323Z,99832.31
2023-02-17T13:21:33.686Z,99821.56
2023-02-17T13:24:04.452Z,99813.53
2023-02-17T13:26:35.243Z,99805.81
2023-02-17T13:29:35.760Z,99797.88
2023-02-17T13:32:06.174Z,99796.03
2023-02-17T13:34:38.464Z,99795.00
2023-02-17T13:37:22.533Z,99790.91
2023-02-17T13:39:51.546Z,99790.47
2023-02-17T13:42:38.532Z,99792.56
2023-02-17T13:45:18.093Z,99781.50
2023-02-17T13:47:48.526Z,99783.81
2023-02-17T13:50:32.662Z,99780.41
2023-02-17T13:53:02.013Z,99778.47
2023-02-17T13:55:31.060Z,99773.31
2023-02-17T13:58:00.954Z,99769.09
2023-02-17T14:00:33.441Z,99764.63
2023-02-17T14:03:07.625Z,99773.31
2023-02-17T14:05:40.032Z,99760.50
2023-02-17T14:08:14.729Z,99763.34
2023-02-17T14:10:43.619Z,99760.31
2023-02-17T14:13:13.307Z,99746.09
2023-02-17T14:15:54.709Z,99747.38
2023-02-17T14:18:31.824Z,99739.19
2023-02-17T14:21:07.889Z,99736.88
2023-02-17T14:23:49.179Z,99721.03
2023-02-17T14:26:29.073Z,99713.13
2023-02-17T14:28:59.402Z,99707.41
2023-02-17T14:31:30.619Z,99704.38
2023-02-17T14:34:02.849Z,99700.59
2023-02-17T14:36:36.981Z,99692.72
2023-02-17T14:39:07.927Z,99677.41
2023-02-17T14:41:37.245Z,99674.53
2023-02-17T14:44:06.926Z,99660.25
2023-02-17T14:46:37.466Z,99662.53
2023-02-17T14:49:06.631Z,99658.94
2023-02-17T14:51:38.106Z,99651.72
2023-02-17T14:54:14.305Z,99648.91
2023-02-17T14:56:46.602Z,99639.13
2023-02-17T14:59:15.899Z,99640.47
2023-02-17T15:01:46.063Z,99631.84
2023-02-17T15:04:15.965Z,99623.34
2023-02-17T15:06:48.076Z,99613.66
2023-02-17T15:09:19.083Z,99611.94
2023-02-17T15:11:49.307Z,99611.19
2023-02-17T15:14:21.336Z,99603.69
2023-02-17T15:16:52.476Z,99610.09
2023-02-17T15:19:21.657Z,99609.00
2023-02-17T15:21:51.834Z,99594.75
2023-02-17T15:24:25.642Z,99594.63
2023-02-17T15:26:56.435Z,99598.00
2023-02-17T15:29:27.378Z,99584.66
2023-02-17T15:32:01.617Z,99582.22
2023-02-17T15:34:33.390Z,99574.06
2023-02-17T15:37:03.011Z,99578.19
2023-02-17T15:39:32.267Z,99572.03
2023-02-17T15:42:03.869Z,99564.44
2023-02-17T15:44:37.504Z,99546.06
2023-02-17T15:47:13.766Z,99539.13
2023-02-17T15:49:42.573Z,99544.09
2023-02-17T15:52:13.865Z,99535.31
2023-02-17T15:54:43.720Z,99535.81
2023-02-17T15:57:21.678Z,99521.31
2023-02-17T15:59:54.986Z,99508.47
2023-02-17T16:02:26.683Z,99503.69
2023-02-17T16:04:55.501Z,99500.69
2023-02-17T16:07:25.366Z,99508.69
2023-02-17T16:09:54.518Z,99502.50
2023-02-17T16:12:27.357Z,99494.09
2023-02-17T16:14:57.122Z,99484.78
2023-02-17T16:17:28.165Z,99481.22
2023-02-17T16:19:56.903Z,99476.91
2023-02-17T16:22:26.290Z,99497.06
2023-02-17T16:24:57.676Z,99465.84
2023-02-17T16:27:29.957Z,99440.66
2023-02-17T16:29:59.290Z,99459.91
2023-02-17T16:32:29.941Z,99452.59
2023-02-17T16:34:59.679Z,99455.13
2023-02-17T16:37:28.754Z,99452.00
2023-02-17T16:39:57.899Z,99450.69
2023-02-17T16:42:27.516Z,99445.50
2023-02-17T16:44:56.754Z,99453.72
2023-02-17T16:47:25.825Z,99438.56
2023-02-17T16:49:56.090Z,99426.97
2023-02-17T16:52:26.666Z,99422.91
2023-02-17T16:54:57.026Z,99419.91
2023-02-17T16:57:26.559Z,99414.38
2023-02-17T16:59:56.069Z,99415.06
2023-02-17T17:02:26.521Z,99406.28
2023-02-17T17:04:57.532Z,99400.41
2023-02-17T17:07:31.004Z,99390.31
2023-02-17T17:10:15.186Z,99394.09
2023-02-17T17:12:45.722Z,99386.19
2023-02-17T17:15:16.421Z,99371.94
2023-02-17T17:17:47.048Z,99367.22
2023-02-17T17:20:20.274Z,99359.28
2023-02-17T17:22:49.496Z,99365.66
2023-02-17T17:25:19.025Z,99355.72
2023-02-17T17:27:48.468Z,99347.78
2023-02-17T17:30:21.904Z,99340.75
2023-02-17T17:32:52.681Z,99335.84
2023-02-17T17:35:23.480Z,99315.66
2023-02-17T17:37:51.987Z,99318.22
2023-02-17T17:40:24.323Z,99311.91
2023-02-17T17:42:53.658Z,99298.75
2023-02-17T17:45:23.877Z,99296.75
2023-02-17T17:47:53.088Z,99293.63
2023-02-17T17:50:26.027Z,99288.28
2023-02-17T17:52:54.862Z,99291.84
2023-02-17T17:55:25.093Z,99282.03
2023-02-17T17:57:53.916Z,99288.03
2023-02-17T18:00:23.308Z,99293.53
2023-02-17T18:02:52.420Z,99275.19
2023-02-17T18:05:24.338Z,99264.22
2023-02-17T18:07:53.332Z,99272.50
2023-02-17T18:10:22.683Z,99265.97
2023-02-17T18:12:53.233Z,99259.19
2023-02-17T18:15:22.427Z,99249.66
2023-02-17T18:17:52.604Z,99251.16
2023-02-17T18:20:21.802Z,99252.59
2023-02-17T18:22:53.284Z,99247.28
2023-02-17T18:25:23.064Z,99241.06
2023-02-17T18:27:52.357Z,99238.03
2023-02-17T18:30:23.583Z,99236.69
2023-02-17T18:32:52.974Z,99227.44
2023-02-17T18:35:22.534Z,99206.47
2023-02-17T18:37:52.717Z,99211.16
2023-02-17T18:40:23.264Z,99209.50
2023-02-17T18:42:52.422Z,99227.06
2023-02-17T18:45:21.835Z,99223.22
2023-02-17T18:47:51.032Z,99210.03
2023-02-17T18:50:20.439Z,99202.50
2023-02-17T18:52:49.308Z,99211.72
2023-02-17T18:55:20.159Z,99197.81
2023-02-17T18:57:49.322Z,99187.13
2023-02-17T19:00:19.373Z,99191.28
2023-02-17T19:02:48.589Z,99205.16
2023-02-17T19:05:18.474Z,99198.06
2023-02-17T19:07:47.468Z,99198.56
2023-02-17T19:10:17.081Z,99186.75
2023-02-17T19:12:47.849Z,99189.47
2023-02-17T19:15:20.882Z,99178.16
2023-02-17T19:17:51.141Z,99179.94
2023-02-17T19:20:20.367Z,99185.03
2023-02-17T19:22:49.014Z,99174.53
2023-02-17T19:25:18.115Z,99179.91
2023-02-17T19:27:48.934Z,99181.03
2023-02-17T19:30:17.997Z,99176.56
2023-02-17T19:32:47.228Z,99170.97
2023-02-17T19:35:16.358Z,99166.25
2023-02-17T19:37:44.985Z,99165.25
2023-02-17T19:40:14.138Z,99159.06
2023-02-17T19:42:43.256Z,99147.13
2023-02-17T19:45:13.793Z,99163.84
2023-02-17T19:47:42.791Z,99140.13
2023-02-17T19:50:12.668Z,99153.34
2023-02-17T19:52:41.596Z,99152.81
2023-02-17T19:55:10.964Z,99161.19
2023-02-17T19:57:40.222Z,99164.84
2023-02-17T20:00:11.619Z,99151.69
2023-02-17T20:02:42.201Z,99155.53
2023-02-17T20:05:11.316Z,99164.75
2023-02-17T20:07:40.064Z,99155.19
2023-02-17T20:10:12.577Z,99154.16
2023-02-17T20:12:42.000Z,99160.06
2023-02-17T20:15:11.500Z,99142.25
2023-02-17T20:17:42.319Z,99148.66
2023-02-17T20:20:12.381Z,99142.34
2023-02-17T20:22:41.264Z,99125.44
2023-02-17T20:25:10.571Z,99140.72
2023-02-17T20:27:39.742Z,99135.81
2023-02-17T20:30:10.320Z,99135.00
2023-02-17T20:32:39.568Z,99129.19
2023-02-17T20:35:12.877Z,99124.63
2023-02-17T20:37:41.715Z,99126.69
2023-02-17T20:40:11.435Z,99125.75
2023-02-17T20:42:40.506Z,99117.28
2023-02-17T20:45:10.027Z,99132.25
2023-02-17T20:47:39.105Z,99133.16
2023-02-17T20:50:12.523Z,99128.41
2023-02-17T20:52:41.181Z,99126.94
2023-02-17T20:55:10.447Z,99116.63
2023-02-17T20:57:39.489Z,99121.16
2023-02-17T21:00:10.445Z,99122.69
2023-02-17T21:02:39.595Z,99108.28
2023-02-17T21:05:10.833Z,99094.47
2023-02-17T21:07:40.605Z,99092.44
2023-02-17T21:10:16.808Z,99093.72
2023-02-17T21:12:46.388Z,99095.44
2023-02-17T21:15:15.932Z,99091.69
2023-02-17T21:17:46.390Z,99076.84
2023-02-17T21:20:18.924Z,99096.75
2023-02-17T21:22:47.841Z,99099.69
2023-02-17T21:25:16.844Z,99090.59
2023-02-17T21:27:46.624Z,99082.19
2023-02-17T21:30:16.423Z,99084.47
2023-02-17T21:32:45.524Z,99077.22
2023-02-17T21:35:14.554Z,99088.47
2023-02-17T21:37:44.941Z,99081.09
2023-02-17T21:40:14.599Z,99070.06
2023-02-17T21:43:00.957Z,99077.16
2023-02-17T21:45:30.220Z,99071.63
2023-02-17T21:47:59.333Z,99070.22
2023-02-17T21:50:28.423Z,99077.38
2023-02-17T21:52:58.511Z,99079.16
2023-02-17T21:55:27.556Z,99091.28
2023-02-17T21:57:56.634Z,99099.63
2023-02-17T22:00:26.443Z,99113.19
2023-02-17T22:02:55.467Z,99119.81
2023-02-17T22:05:24.633Z,99117.16
2023-02-17T22:07:53.291Z,99140.94
2023-02-17T22:10:23.797Z,99145.28
2023-02-17T22:12:53.047Z,99115.84
2023-02-17T22:15:22.236Z,99129.47
2023-02-17T22:17:51.234Z,99124.34
2023-02-17T22:20:23.376Z,99111.31
2023-02-17T22:22:52.896Z,99115.72
2023-02-17T22:25:23.796Z,99107.31
2023-02-17T22:27:52.924Z,99117.50
2023-02-17T22:30:22.054Z,99119.44
2023-02-17T22:32:51.252Z,99110.09
2023-02-17T22:35:22.159Z,99112.84
2023-02-17T22:37:50.898Z,99101.66
2023-02-17T22:40:20.173Z,99101.75
2023-02-17T22:42:50.562Z,99095.25
2023-02-17T22:45:19.644Z,99091.69
2023-02-17T22:47:48.673Z,99090.94
2023-02-17T22:50:18.338Z,99115.00
2023-02-17T22:52:47.134Z,99114.50
2023-02-17T22:55:16.145Z,99135.06
2023-02-17T22:57:47.397Z,99133.22
2023-02-17T23:00:19.194Z,99135.38
2023-02-17T23:02:48.260Z,99121.19
2023-02-17T23:05:17.570Z,99133.50
2023-02-17T23:07:46.271Z,99131.16
2023-02-17T23:10:15.359Z,99138.66
2023-02-17T23:12:44.353Z,99125.78
2023-02-17T23:15:13.843Z,99127.13
2023-02-17T23:17:59.734Z,99141.59
2023-02-17T23:20:30.253Z,99143.41
2023-02-17T23:22:58.946Z,99137.88
2023-02-17T23:25:28.117Z,99126.53
2023-02-17T23:27:57.221Z,99135.34
2023-02-17T23:30:26.995Z,99124.84
2023-02-17T23:32:57.545Z,99130.56
2023-02-17T23:35:27.338Z,99137.09
2023-02-17T23:37:55.989Z,99125.41
2023-02-17T23:40:24.988Z,99141.50
2023-02-17T23:42:54.059Z,99145.22
2023-02-17T23:45:23.304Z,99142.63
2023-02-17T23:47:52.283Z,99150.03
2023-02-17T23:50:22.686Z,99179.22
2023-02-17T23:52:51.246Z,99166.50
2023-02-17T23:55:21.715Z,99166.88
2023-02-17T23:57:51.874Z,99165.78
